sensor_id;sensor_type;location;lat;lon;timestamp;P1;durP1;ratioP1;P2;durP2;ratioP2
64842;SDS011;51310;52.198;5.422;2023-06-22T00:02:17;10.95;;;6.70;;
64842;SDS011;51310;52.198;5.422;2023-06-22T00:04:43;11.23;;;5.35;;
64842;SDS011;51310;52.198;5.422;2023-06-22T00:07:09;9.75;;;6.20;;
64842;SDS011;51310;52.198;5.422;2023-06-22T00:09:36;8.10;;;6.32;;
64842;SDS011;51310;52.198;5.422;2023-06-22T00:12:02;17.13;;;8.38;;
64842;SDS011;51310;52.198;5.422;2023-06-22T00:14:28;7.53;;;6.10;;
64842;SDS011;51310;52.198;5.422;2023-06-22T00:16:54;8.82;;;5.97;;
64842;SDS011;51310;52.198;5.422;2023-06-22T00:19:22;12.52;;;6.90;;
64842;SDS011;51310;52.198;5.422;2023-06-22T00:21:49;11.25;;;6.15;;
64842;SDS011;51310;52.198;5.422;2023-06-22T00:24:19;11.40;;;7.13;;
64842;SDS011;51310;52.198;5.422;2023-06-22T00:26:46;9.80;;;6.32;;
64842;SDS011;51310;52.198;5.422;2023-06-22T00:29:13;10.68;;;6.82;;
64842;SDS011;51310;52.198;5.422;2023-06-22T00:31:40;11.63;;;6.40;;
64842;SDS011;51310;52.198;5.422;2023-06-22T00:34:06;9.90;;;7.78;;
64842;SDS011;51310;52.198;5.422;2023-06-22T00:36:33;13.35;;;7.47;;
64842;SDS011;51310;52.198;5.422;2023-06-22T00:39:02;13.88;;;6.95;;
64842;SDS011;51310;52.198;5.422;2023-06-22T00:41:28;11.02;;;7.20;;
64842;SDS011;51310;52.198;5.422;2023-06-22T00:43:54;14.18;;;6.88;;
64842;SDS011;51310;52.198;5.422;2023-06-22T00:46:21;11.02;;;7.35;;
64842;SDS011;51310;52.198;5.422;2023-06-22T00:48:48;12.05;;;7.80;;
64842;SDS011;51310;52.198;5.422;2023-06-22T00:51:16;12.63;;;7.68;;
64842;SDS011;51310;52.198;5.422;2023-06-22T00:53:42;12.20;;;7.90;;
64842;SDS011;51310;52.198;5.422;2023-06-22T00:56:08;17.42;;;8.95;;
64842;SDS011;51310;52.198;5.422;2023-06-22T00:58:37;13.63;;;7.57;;
64842;SDS011;51310;52.198;5.422;2023-06-22T01:01:06;10.45;;;8.23;;
64842;SDS011;51310;52.198;5.422;2023-06-22T01:03:33;16.13;;;8.40;;
64842;SDS011;51310;52.198;5.422;2023-06-22T01:06:01;14.20;;;8.80;;
64842;SDS011;51310;52.198;5.422;2023-06-22T01:08:45;16.45;;;9.05;;
64842;SDS011;51310;52.198;5.422;2023-06-22T01:11:41;20.60;;;10.15;;
64842;SDS011;51310;52.198;5.422;2023-06-22T01:14:29;15.15;;;10.32;;
64842;SDS011;51310;52.198;5.422;2023-06-22T01:17:07;15.50;;;10.63;;
64842;SDS011;51310;52.198;5.422;2023-06-22T01:19:49;14.07;;;9.90;;
64842;SDS011;51310;52.198;5.422;2023-06-22T01:22:21;14.25;;;9.75;;
64842;SDS011;51310;52.198;5.422;2023-06-22T01:27:53;14.90;;;9.70;;
64842;SDS011;51310;52.198;5.422;2023-06-22T01:31:00;18.17;;;9.85;;
64842;SDS011;51310;52.198;5.422;2023-06-22T01:33:32;14.85;;;10.27;;
64842;SDS011;51310;52.198;5.422;2023-06-22T01:36:02;17.38;;;10.45;;
64842;SDS011;51310;52.198;5.422;2023-06-22T01:38:30;13.57;;;8.63;;
64842;SDS011;51310;52.198;5.422;2023-06-22T01:40:59;18.67;;;10.35;;
64842;SDS011;51310;52.198;5.422;2023-06-22T01:43:26;16.23;;;9.85;;
64842;SDS011;51310;52.198;5.422;2023-06-22T01:45:54;14.35;;;9.88;;
64842;SDS011;51310;52.198;5.422;2023-06-22T01:48:23;16.05;;;10.05;;
64842;SDS011;51310;52.198;5.422;2023-06-22T01:50:51;18.02;;;11.25;;
64842;SDS011;51310;52.198;5.422;2023-06-22T01:53:20;17.98;;;11.20;;
64842;SDS011;51310;52.198;5.422;2023-06-22T01:55:47;20.02;;;10.15;;
64842;SDS011;51310;52.198;5.422;2023-06-22T01:58:14;22.90;;;11.00;;
64842;SDS011;51310;52.198;5.422;2023-06-22T02:00:41;14.82;;;9.80;;
64842;SDS011;51310;52.198;5.422;2023-06-22T02:03:18;14.80;;;11.13;;
64842;SDS011;51310;52.198;5.422;2023-06-22T02:05:55;17.33;;;10.88;;
64842;SDS011;51310;52.198;5.422;2023-06-22T02:08:32;19.95;;;11.93;;
64842;SDS011;51310;52.198;5.422;2023-06-22T02:11:15;21.55;;;11.32;;
64842;SDS011;51310;52.198;5.422;2023-06-22T02:13:45;19.63;;;12.68;;
64842;SDS011;51310;52.198;5.422;2023-06-22T02:16:13;18.58;;;11.13;;
64842;SDS011;51310;52.198;5.422;2023-06-22T02:18:48;19.73;;;12.35;;
64842;SDS011;51310;52.198;5.422;2023-06-22T02:21:16;17.52;;;11.50;;
64842;SDS011;51310;52.198;5.422;2023-06-22T02:23:43;18.17;;;11.35;;
64842;SDS011;51310;52.198;5.422;2023-06-22T02:26:09;19.02;;;11.95;;
64842;SDS011;51310;52.198;5.422;2023-06-22T02:28:35;20.73;;;11.90;;
64842;SDS011;51310;52.198;5.422;2023-06-22T02:31:01;23.35;;;12.15;;
64842;SDS011;51310;52.198;5.422;2023-06-22T02:33:27;18.95;;;11.30;;
64842;SDS011;51310;52.198;5.422;2023-06-22T02:35:53;17.15;;;11.98;;
64842;SDS011;51310;52.198;5.422;2023-06-22T02:38:19;20.55;;;11.48;;
64842;SDS011;51310;52.198;5.422;2023-06-22T02:40:46;22.55;;;11.85;;
64842;SDS011;51310;52.198;5.422;2023-06-22T02:43:12;18.15;;;10.70;;
64842;SDS011;51310;52.198;5.422;2023-06-22T02:45:38;17.80;;;12.38;;
64842;SDS011;51310;52.198;5.422;2023-06-22T02:48:04;17.65;;;11.52;;
64842;SDS011;51310;52.198;5.422;2023-06-22T02:50:30;18.50;;;12.43;;
64842;SDS011;51310;52.198;5.422;2023-06-22T02:52:56;16.38;;;11.75;;
64842;SDS011;51310;52.198;5.422;2023-06-22T02:55:23;19.50;;;10.90;;
64842;SDS011;51310;52.198;5.422;2023-06-22T02:57:49;18.38;;;11.45;;
64842;SDS011;51310;52.198;5.422;2023-06-22T03:00:17;16.58;;;11.38;;
64842;SDS011;51310;52.198;5.422;2023-06-22T03:02:48;17.85;;;11.60;;
64842;SDS011;51310;52.198;5.422;2023-06-22T03:05:15;18.45;;;11.50;;
64842;SDS011;51310;52.198;5.422;2023-06-22T03:07:43;15.98;;;10.88;;
64842;SDS011;51310;52.198;5.422;2023-06-22T03:10:10;17.63;;;11.00;;
64842;SDS011;51310;52.198;5.422;2023-06-22T03:12:39;21.83;;;12.05;;
64842;SDS011;51310;52.198;5.422;2023-06-22T03:15:07;18.85;;;12.23;;
64842;SDS011;51310;52.198;5.422;2023-06-22T03:17:36;22.67;;;12.43;;
64842;SDS011;51310;52.198;5.422;2023-06-22T03:20:05;19.95;;;11.15;;
64842;SDS011;51310;52.198;5.422;2023-06-22T03:22:37;20.65;;;12.10;;
64842;SDS011;51310;52.198;5.422;2023-06-22T03:25:05;18.33;;;11.55;;
64842;SDS011;51310;52.198;5.422;2023-06-22T03:27:41;16.70;;;11.18;;
64842;SDS011;51310;52.198;5.422;2023-06-22T03:30:09;18.33;;;11.25;;
64842;SDS011;51310;52.198;5.422;2023-06-22T03:32:36;15.27;;;10.75;;
64842;SDS011;51310;52.198;5.422;2023-06-22T03:35:02;19.30;;;11.35;;
64842;SDS011;51310;52.198;5.422;2023-06-22T03:37:31;18.40;;;11.48;;
64842;SDS011;51310;52.198;5.422;2023-06-22T03:39:57;20.25;;;11.25;;
64842;SDS011;51310;52.198;5.422;2023-06-22T03:42:22;17.80;;;11.05;;
64842;SDS011;51310;52.198;5.422;2023-06-22T03:44:48;18.90;;;11.48;;
64842;SDS011;51310;52.198;5.422;2023-06-22T03:47:14;19.38;;;11.10;;
64842;SDS011;51310;52.198;5.422;2023-06-22T03:49:40;18.35;;;12.48;;
64842;SDS011;51310;52.198;5.422;2023-06-22T03:52:06;19.83;;;12.23;;
64842;SDS011;51310;52.198;5.422;2023-06-22T03:54:32;18.77;;;12.68;;
64842;SDS011;51310;52.198;5.422;2023-06-22T03:56:58;19.95;;;11.55;;
64842;SDS011;51310;52.198;5.422;2023-06-22T03:59:24;21.65;;;12.32;;
64842;SDS011;51310;52.198;5.422;2023-06-22T04:01:51;20.95;;;12.93;;
64842;SDS011;51310;52.198;5.422;2023-06-22T04:04:17;21.67;;;13.90;;
64842;SDS011;51310;52.198;5.422;2023-06-22T04:06:43;22.65;;;13.02;;
64842;SDS011;51310;52.198;5.422;2023-06-22T04:09:09;18.88;;;12.57;;
64842;SDS011;51310;52.198;5.422;2023-06-22T04:11:36;20.67;;;14.15;;
64842;SDS011;51310;52.198;5.422;2023-06-22T04:14:02;22.85;;;13.23;;
64842;SDS011;51310;52.198;5.422;2023-06-22T04:16:28;25.80;;;15.18;;
64842;SDS011;51310;52.198;5.422;2023-06-22T04:18:53;25.80;;;15.00;;
64842;SDS011;51310;52.198;5.422;2023-06-22T04:21:19;27.85;;;15.30;;
64842;SDS011;51310;52.198;5.422;2023-06-22T04:23:45;27.20;;;14.57;;
64842;SDS011;51310;52.198;5.422;2023-06-22T04:26:12;21.52;;;15.05;;
64842;SDS011;51310;52.198;5.422;2023-06-22T04:28:41;28.45;;;16.20;;
64842;SDS011;51310;52.198;5.422;2023-06-22T04:31:07;30.75;;;15.73;;
64842;SDS011;51310;52.198;5.422;2023-06-22T04:33:33;32.47;;;16.52;;
64842;SDS011;51310;52.198;5.422;2023-06-22T04:35:59;35.45;;;17.77;;
64842;SDS011;51310;52.198;5.422;2023-06-22T04:38:29;27.65;;;16.20;;
64842;SDS011;51310;52.198;5.422;2023-06-22T04:40:58;29.33;;;18.17;;
64842;SDS011;51310;52.198;5.422;2023-06-22T04:43:26;29.05;;;17.77;;
64842;SDS011;51310;52.198;5.422;2023-06-22T04:45:55;33.60;;;19.80;;
64842;SDS011;51310;52.198;5.422;2023-06-22T04:51:01;39.08;;;17.98;;
64842;SDS011;51310;52.198;5.422;2023-06-22T04:53:30;31.83;;;20.08;;
64842;SDS011;51310;52.198;5.422;2023-06-22T04:55:56;31.73;;;18.83;;
64842;SDS011;51310;52.198;5.422;2023-06-22T04:58:22;36.55;;;20.67;;
64842;SDS011;51310;52.198;5.422;2023-06-22T05:00:52;34.85;;;20.67;;
64842;SDS011;51310;52.198;5.422;2023-06-22T05:03:17;32.47;;;20.80;;
64842;SDS011;51310;52.198;5.422;2023-06-22T05:05:43;34.40;;;21.50;;
64842;SDS011;51310;52.198;5.422;2023-06-22T05:08:09;32.33;;;19.65;;
64842;SDS011;51310;52.198;5.422;2023-06-22T05:10:35;33.83;;;19.27;;
64842;SDS011;51310;52.198;5.422;2023-06-22T05:13:01;33.30;;;19.88;;
64842;SDS011;51310;52.198;5.422;2023-06-22T05:15:27;34.42;;;20.98;;
64842;SDS011;51310;52.198;5.422;2023-06-22T05:17:55;40.28;;;21.65;;
64842;SDS011;51310;52.198;5.422;2023-06-22T05:20:21;37.80;;;20.92;;
64842;SDS011;51310;52.198;5.422;2023-06-22T05:22:47;39.75;;;23.70;;
64842;SDS011;51310;52.198;5.422;2023-06-22T05:25:13;42.10;;;24.67;;
64842;SDS011;51310;52.198;5.422;2023-06-22T05:27:39;36.78;;;23.60;;
64842;SDS011;51310;52.198;5.422;2023-06-22T05:30:05;40.75;;;23.58;;
64842;SDS011;51310;52.198;5.422;2023-06-22T05:32:33;42.10;;;24.92;;
64842;SDS011;51310;52.198;5.422;2023-06-22T05:35:01;50.03;;;27.08;;
64842;SDS011;51310;52.198;5.422;2023-06-22T05:37:29;45.60;;;27.65;;
64842;SDS011;51310;52.198;5.422;2023-06-22T05:39:55;44.47;;;26.58;;
64842;SDS011;51310;52.198;5.422;2023-06-22T05:42:22;40.60;;;25.88;;
64842;SDS011;51310;52.198;5.422;2023-06-22T05:44:50;46.05;;;27.38;;
64842;SDS011;51310;52.198;5.422;2023-06-22T05:47:18;39.88;;;24.95;;
64842;SDS011;51310;52.198;5.422;2023-06-22T05:49:44;43.22;;;26.75;;
64842;SDS011;51310;52.198;5.422;2023-06-22T05:52:10;41.15;;;25.98;;
64842;SDS011;51310;52.198;5.422;2023-06-22T05:54:36;50.75;;;26.27;;
64842;SDS011;51310;52.198;5.422;2023-06-22T05:57:04;38.95;;;25.50;;
64842;SDS011;51310;52.198;5.422;2023-06-22T05:59:30;41.38;;;24.92;;
64842;SDS011;51310;52.198;5.422;2023-06-22T06:01:55;37.05;;;22.58;;
64842;SDS011;51310;52.198;5.422;2023-06-22T06:04:21;41.47;;;23.90;;
64842;SDS011;51310;52.198;5.422;2023-06-22T06:06:47;40.65;;;25.50;;
64842;SDS011;51310;52.198;5.422;2023-06-22T06:09:14;40.13;;;25.35;;
64842;SDS011;51310;52.198;5.422;2023-06-22T06:11:40;36.05;;;25.33;;
64842;SDS011;51310;52.198;5.422;2023-06-22T06:14:06;42.53;;;23.45;;
64842;SDS011;51310;52.198;5.422;2023-06-22T06:16:32;43.58;;;24.15;;
64842;SDS011;51310;52.198;5.422;2023-06-22T06:18:58;33.83;;;22.42;;
64842;SDS011;51310;52.198;5.422;2023-06-22T06:21:24;39.70;;;23.45;;
64842;SDS011;51310;52.198;5.422;2023-06-22T06:23:49;41.67;;;24.65;;
64842;SDS011;51310;52.198;5.422;2023-06-22T06:26:15;40.30;;;22.73;;
64842;SDS011;51310;52.198;5.422;2023-06-22T06:28:42;34.72;;;24.05;;
64842;SDS011;51310;52.198;5.422;2023-06-22T06:31:09;36.80;;;22.60;;
64842;SDS011;51310;52.198;5.422;2023-06-22T06:33:37;36.47;;;24.58;;
64842;SDS011;51310;52.198;5.422;2023-06-22T06:36:02;41.50;;;23.20;;
64842;SDS011;51310;52.198;5.422;2023-06-22T06:38:29;38.17;;;22.50;;
64842;SDS011;51310;52.198;5.422;2023-06-22T06:40:58;34.20;;;21.65;;
64842;SDS011;51310;52.198;5.422;2023-06-22T06:43:24;37.50;;;22.40;;
64842;SDS011;51310;52.198;5.422;2023-06-22T06:45:50;31.98;;;21.38;;
64842;SDS011;51310;52.198;5.422;2023-06-22T06:48:16;33.78;;;22.15;;
64842;SDS011;51310;52.198;5.422;2023-06-22T06:50:42;36.38;;;20.17;;
64842;SDS011;51310;52.198;5.422;2023-06-22T06:53:09;29.83;;;19.92;;
64842;SDS011;51310;52.198;5.422;2023-06-22T06:55:35;34.05;;;20.35;;
64842;SDS011;51310;52.198;5.422;2023-06-22T06:58:01;33.53;;;19.08;;
64842;SDS011;51310;52.198;5.422;2023-06-22T07:00:32;35.35;;;20.40;;
64842;SDS011;51310;52.198;5.422;2023-06-22T07:02:58;28.65;;;18.67;;
64842;SDS011;51310;52.198;5.422;2023-06-22T07:05:24;29.30;;;18.98;;
64842;SDS011;51310;52.198;5.422;2023-06-22T07:07:50;28.30;;;18.23;;
64842;SDS011;51310;52.198;5.422;2023-06-22T07:10:16;29.13;;;17.77;;
64842;SDS011;51310;52.198;5.422;2023-06-22T07:12:42;24.15;;;17.05;;
64842;SDS011;51310;52.198;5.422;2023-06-22T07:15:08;24.00;;;16.15;;
64842;SDS011;51310;52.198;5.422;2023-06-22T07:17:36;21.33;;;16.30;;
64842;SDS011;51310;52.198;5.422;2023-06-22T07:20:06;22.33;;;15.02;;
64842;SDS011;51310;52.198;5.422;2023-06-22T07:22:43;19.67;;;14.15;;
64842;SDS011;51310;52.198;5.422;2023-06-22T07:27:39;23.05;;;14.88;;
64842;SDS011;51310;52.198;5.422;2023-06-22T07:30:27;19.65;;;14.52;;
64842;SDS011;51310;52.198;5.422;2023-06-22T07:32:54;20.10;;;13.30;;
64842;SDS011;51310;52.198;5.422;2023-06-22T07:35:20;22.73;;;12.43;;
64842;SDS011;51310;52.198;5.422;2023-06-22T07:37:46;23.67;;;13.02;;
64842;SDS011;51310;52.198;5.422;2023-06-22T07:40:12;21.83;;;10.88;;
64842;SDS011;51310;52.198;5.422;2023-06-22T07:42:38;18.02;;;12.45;;
64842;SDS011;51310;52.198;5.422;2023-06-22T07:45:05;15.43;;;10.55;;
64842;SDS011;51310;52.198;5.422;2023-06-22T07:47:33;20.55;;;12.35;;
64842;SDS011;51310;52.198;5.422;2023-06-22T07:50:00;15.55;;;10.93;;
64842;SDS011;51310;52.198;5.422;2023-06-22T07:52:28;14.90;;;10.13;;
64842;SDS011;51310;52.198;5.422;2023-06-22T07:54:55;18.77;;;10.70;;
64842;SDS011;51310;52.198;5.422;2023-06-22T07:57:21;14.85;;;10.90;;
64842;SDS011;51310;52.198;5.422;2023-06-22T07:59:47;14.52;;;9.70;;
64842;SDS011;51310;52.198;5.422;2023-06-22T08:02:13;13.38;;;10.43;;
64842;SDS011;51310;52.198;5.422;2023-06-22T08:04:39;13.95;;;10.20;;
64842;SDS011;51310;52.198;5.422;2023-06-22T08:07:06;14.20;;;9.73;;
64842;SDS011;51310;52.198;5.422;2023-06-22T08:09:32;12.20;;;8.05;;
64842;SDS011;51310;52.198;5.422;2023-06-22T08:11:59;14.85;;;8.18;;
64842;SDS011;51310;52.198;5.422;2023-06-22T08:14:26;15.77;;;9.07;;
64842;SDS011;51310;52.198;5.422;2023-06-22T08:16:55;11.65;;;7.75;;
64842;SDS011;51310;52.198;5.422;2023-06-22T08:19:21;18.70;;;7.68;;
64842;SDS011;51310;52.198;5.422;2023-06-22T08:21:47;24.10;;;9.32;;
64842;SDS011;51310;52.198;5.422;2023-06-22T08:24:13;13.40;;;8.30;;
64842;SDS011;51310;52.198;5.422;2023-06-22T08:26:39;11.48;;;8.20;;
64842;SDS011;51310;52.198;5.422;2023-06-22T08:29:05;12.07;;;7.75;;
64842;SDS011;51310;52.198;5.422;2023-06-22T08:31:31;14.95;;;8.73;;
64842;SDS011;51310;52.198;5.422;2023-06-22T08:33:59;16.52;;;7.40;;
64842;SDS011;51310;52.198;5.422;2023-06-22T08:36:25;12.68;;;7.65;;
64842;SDS011;51310;52.198;5.422;2023-06-22T08:38:54;10.18;;;6.10;;
64842;SDS011;51310;52.198;5.422;2023-06-22T08:41:26;12.38;;;6.95;;
64842;SDS011;51310;52.198;5.422;2023-06-22T08:43:52;9.13;;;5.72;;
64842;SDS011;51310;52.198;5.422;2023-06-22T08:46:19;7.85;;;5.80;;
64842;SDS011;51310;52.198;5.422;2023-06-22T08:48:48;9.40;;;6.13;;
64842;SDS011;51310;52.198;5.422;2023-06-22T08:51:15;16.33;;;6.75;;
64842;SDS011;51310;52.198;5.422;2023-06-22T08:53:42;10.65;;;6.18;;
64842;SDS011;51310;52.198;5.422;2023-06-22T08:56:10;11.98;;;5.60;;
64842;SDS011;51310;52.198;5.422;2023-06-22T08:58:36;9.63;;;4.47;;
64842;SDS011;51310;52.198;5.422;2023-06-22T09:01:01;8.82;;;5.07;;
64842;SDS011;51310;52.198;5.422;2023-06-22T09:03:28;8.63;;;5.43;;
64842;SDS011;51310;52.198;5.422;2023-06-22T09:05:53;12.30;;;5.05;;
64842;SDS011;51310;52.198;5.422;2023-06-22T09:08:19;7.82;;;3.75;;
64842;SDS011;51310;52.198;5.422;2023-06-22T09:10:45;8.55;;;4.55;;
64842;SDS011;51310;52.198;5.422;2023-06-22T09:13:11;5.95;;;3.75;;
64842;SDS011;51310;52.198;5.422;2023-06-22T09:15:37;11.32;;;5.18;;
64842;SDS011;51310;52.198;5.422;2023-06-22T09:18:03;6.25;;;4.20;;
64842;SDS011;51310;52.198;5.422;2023-06-22T09:20:29;9.48;;;5.25;;
64842;SDS011;51310;52.198;5.422;2023-06-22T09:22:56;9.27;;;4.80;;
64842;SDS011;51310;52.198;5.422;2023-06-22T09:25:22;7.63;;;5.10;;
64842;SDS011;51310;52.198;5.422;2023-06-22T09:27:48;9.60;;;4.55;;
64842;SDS011;51310;52.198;5.422;2023-06-22T09:30:13;6.57;;;4.68;;
64842;SDS011;51310;52.198;5.422;2023-06-22T09:32:39;6.00;;;4.15;;
64842;SDS011;51310;52.198;5.422;2023-06-22T09:35:05;6.38;;;4.55;;
64842;SDS011;51310;52.198;5.422;2023-06-22T09:37:33;7.15;;;4.57;;
64842;SDS011;51310;52.198;5.422;2023-06-22T09:39:59;11.07;;;4.72;;
64842;SDS011;51310;52.198;5.422;2023-06-22T09:42:25;8.07;;;4.38;;
64842;SDS011;51310;52.198;5.422;2023-06-22T09:44:51;6.60;;;3.20;;
64842;SDS011;51310;52.198;5.422;2023-06-22T09:47:17;12.57;;;5.47;;
64842;SDS011;51310;52.198;5.422;2023-06-22T09:49:43;10.70;;;6.20;;
64842;SDS011;51310;52.198;5.422;2023-06-22T09:52:09;14.60;;;6.68;;
64842;SDS011;51310;52.198;5.422;2023-06-22T09:54:36;9.85;;;7.00;;
64842;SDS011;51310;52.198;5.422;2023-06-22T09:57:02;10.98;;;7.10;;
64842;SDS011;51310;52.198;5.422;2023-06-22T09:59:28;12.75;;;8.02;;
64842;SDS011;51310;52.198;5.422;2023-06-22T10:01:54;14.05;;;6.70;;
64842;SDS011;51310;52.198;5.422;2023-06-22T10:04:20;14.15;;;7.55;;
64842;SDS011;51310;52.198;5.422;2023-06-22T10:06:46;13.93;;;7.13;;
64842;SDS011;51310;52.198;5.422;2023-06-22T10:09:12;14.93;;;8.48;;
64842;SDS011;51310;52.198;5.422;2023-06-22T10:11:38;10.52;;;7.80;;
64842;SDS011;51310;52.198;5.422;2023-06-22T10:14:04;17.75;;;7.70;;
64842;SDS011;51310;52.198;5.422;2023-06-22T10:16:30;13.57;;;8.77;;
64842;SDS011;51310;52.198;5.422;2023-06-22T10:18:58;15.38;;;7.95;;
64842;SDS011;51310;52.198;5.422;2023-06-22T10:21:24;11.95;;;8.20;;
64842;SDS011;51310;52.198;5.422;2023-06-22T10:23:52;13.10;;;8.77;;
64842;SDS011;51310;52.198;5.422;2023-06-22T10:26:18;14.45;;;8.48;;
64842;SDS011;51310;52.198;5.422;2023-06-22T10:28:43;13.50;;;9.15;;
64842;SDS011;51310;52.198;5.422;2023-06-22T10:31:09;13.32;;;9.23;;
64842;SDS011;51310;52.198;5.422;2023-06-22T10:33:35;15.57;;;9.35;;
64842;SDS011;51310;52.198;5.422;2023-06-22T10:36:01;17.58;;;10.23;;
64842;SDS011;51310;52.198;5.422;2023-06-22T10:38:27;18.23;;;10.23;;
64842;SDS011;51310;52.198;5.422;2023-06-22T10:40:53;17.17;;;10.82;;
64842;SDS011;51310;52.198;5.422;2023-06-22T10:43:19;14.25;;;9.23;;
64842;SDS011;51310;52.198;5.422;2023-06-22T10:45:45;12.07;;;8.48;;
64842;SDS011;51310;52.198;5.422;2023-06-22T10:48:11;13.18;;;8.00;;
64842;SDS011;51310;52.198;5.422;2023-06-22T10:50:37;11.50;;;7.78;;
64842;SDS011;51310;52.198;5.422;2023-06-22T10:53:03;16.25;;;9.00;;
64842;SDS011;51310;52.198;5.422;2023-06-22T10:55:29;14.88;;;8.98;;
64842;SDS011;51310;52.198;5.422;2023-06-22T10:57:55;18.40;;;8.85;;
64842;SDS011;51310;52.198;5.422;2023-06-22T11:00:20;15.32;;;10.15;;
64842;SDS011;51310;52.198;5.422;2023-06-22T11:02:46;16.10;;;9.50;;
64842;SDS011;51310;52.198;5.422;2023-06-22T11:05:12;13.40;;;8.80;;
64842;SDS011;51310;52.198;5.422;2023-06-22T11:07:41;12.45;;;8.82;;
64842;SDS011;51310;52.198;5.422;2023-06-22T11:10:09;13.93;;;9.35;;
64842;SDS011;51310;52.198;5.422;2023-06-22T11:12:36;19.65;;;9.95;;
64842;SDS011;51310;52.198;5.422;2023-06-22T11:15:02;17.70;;;9.65;;
64842;SDS011;51310;52.198;5.422;2023-06-22T11:17:29;15.10;;;9.90;;
64842;SDS011;51310;52.198;5.422;2023-06-22T11:19:55;14.77;;;9.40;;
64842;SDS011;51310;52.198;5.422;2023-06-22T11:22:21;16.25;;;9.50;;
64842;SDS011;51310;52.198;5.422;2023-06-22T11:24:47;12.82;;;8.70;;
64842;SDS011;51310;52.198;5.422;2023-06-22T11:27:13;15.02;;;9.52;;
64842;SDS011;51310;52.198;5.422;2023-06-22T11:29:40;17.77;;;10.65;;
64842;SDS011;51310;52.198;5.422;2023-06-22T11:32:06;14.50;;;9.73;;
64842;SDS011;51310;52.198;5.422;2023-06-22T11:34:32;21.13;;;10.45;;
64842;SDS011;51310;52.198;5.422;2023-06-22T11:36:58;18.20;;;10.43;;
64842;SDS011;51310;52.198;5.422;2023-06-22T11:39:24;14.82;;;9.23;;
64842;SDS011;51310;52.198;5.422;2023-06-22T11:41:50;13.75;;;9.50;;
64842;SDS011;51310;52.198;5.422;2023-06-22T11:44:16;14.25;;;10.13;;
64842;SDS011;51310;52.198;5.422;2023-06-22T11:46:42;18.65;;;9.98;;
64842;SDS011;51310;52.198;5.422;2023-06-22T11:49:08;12.95;;;8.88;;
64842;SDS011;51310;52.198;5.422;2023-06-22T11:51:34;15.40;;;9.40;;
64842;SDS011;51310;52.198;5.422;2023-06-22T11:54:00;11.85;;;8.45;;
64842;SDS011;51310;52.198;5.422;2023-06-22T11:56:27;13.23;;;9.88;;
64842;SDS011;51310;52.198;5.422;2023-06-22T11:58:53;13.48;;;9.00;;
64842;SDS011;51310;52.198;5.422;2023-06-22T12:01:19;14.82;;;9.88;;
64842;SDS011;51310;52.198;5.422;2023-06-22T12:03:46;14.25;;;9.48;;
64842;SDS011;51310;52.198;5.422;2023-06-22T12:06:13;14.43;;;8.65;;
64842;SDS011;51310;52.198;5.422;2023-06-22T12:08:39;19.58;;;9.45;;
64842;SDS011;51310;52.198;5.422;2023-06-22T12:11:05;13.68;;;7.45;;
64842;SDS011;51310;52.198;5.422;2023-06-22T12:13:30;12.93;;;7.55;;
64842;SDS011;51310;52.198;5.422;2023-06-22T12:15:56;14.40;;;7.88;;
64842;SDS011;51310;52.198;5.422;2023-06-22T12:18:22;11.43;;;7.32;;
64842;SDS011;51310;52.198;5.422;2023-06-22T12:20:49;22.38;;;7.88;;
64842;SDS011;51310;52.198;5.422;2023-06-22T12:23:15;10.48;;;6.68;;
64842;SDS011;51310;52.198;5.422;2023-06-22T12:25:41;10.95;;;7.28;;
64842;SDS011;51310;52.198;5.422;2023-06-22T12:28:07;11.63;;;7.07;;
64842;SDS011;51310;52.198;5.422;2023-06-22T12:33:32;9.60;;;6.38;;
64842;SDS011;51310;52.198;5.422;2023-06-22T12:35:58;12.10;;;7.53;;
64842;SDS011;51310;52.198;5.422;2023-06-22T12:38:24;14.85;;;7.35;;
64842;SDS011;51310;52.198;5.422;2023-06-22T12:40:51;11.02;;;7.50;;
64842;SDS011;51310;52.198;5.422;2023-06-22T12:43:17;12.85;;;7.32;;
64842;SDS011;51310;52.198;5.422;2023-06-22T12:45:43;13.32;;;7.47;;
64842;SDS011;51310;52.198;5.422;2023-06-22T12:48:09;13.90;;;7.13;;
64842;SDS011;51310;52.198;5.422;2023-06-22T12:50:35;14.15;;;7.82;;
64842;SDS011;51310;52.198;5.422;2023-06-22T12:53:01;15.57;;;7.60;;
64842;SDS011;51310;52.198;5.422;2023-06-22T12:55:29;10.18;;;6.07;;
64842;SDS011;51310;52.198;5.422;2023-06-22T12:57:55;10.32;;;7.65;;
64842;SDS011;51310;52.198;5.422;2023-06-22T13:00:21;13.05;;;7.28;;
64842;SDS011;51310;52.198;5.422;2023-06-22T13:02:47;10.18;;;7.03;;
64842;SDS011;51310;52.198;5.422;2023-06-22T13:05:12;10.00;;;6.63;;
64842;SDS011;51310;52.198;5.422;2023-06-22T13:07:38;10.45;;;7.05;;
64842;SDS011;51310;52.198;5.422;2023-06-22T13:10:04;13.77;;;8.35;;
64842;SDS011;51310;52.198;5.422;2023-06-22T13:12:31;15.32;;;7.90;;
64842;SDS011;51310;52.198;5.422;2023-06-22T13:14:57;14.75;;;8.55;;
64842;SDS011;51310;52.198;5.422;2023-06-22T13:17:23;12.93;;;8.65;;
64842;SDS011;51310;52.198;5.422;2023-06-22T13:19:49;12.50;;;8.57;;
64842;SDS011;51310;52.198;5.422;2023-06-22T13:22:28;11.98;;;8.90;;
64842;SDS011;51310;52.198;5.422;2023-06-22T13:24:59;19.60;;;8.77;;
64842;SDS011;51310;52.198;5.422;2023-06-22T13:27:26;13.18;;;9.55;;
64842;SDS011;51310;52.198;5.422;2023-06-22T13:29:52;12.75;;;9.18;;
64842;SDS011;51310;52.198;5.422;2023-06-22T13:32:18;12.27;;;9.45;;
64842;SDS011;51310;52.198;5.422;2023-06-22T13:34:44;16.17;;;9.35;;
64842;SDS011;51310;52.198;5.422;2023-06-22T13:37:10;22.23;;;9.65;;
64842;SDS011;51310;52.198;5.422;2023-06-22T13:39:36;13.43;;;9.75;;
64842;SDS011;51310;52.198;5.422;2023-06-22T13:42:02;17.83;;;9.55;;
64842;SDS011;51310;52.198;5.422;2023-06-22T13:44:28;14.52;;;9.65;;
64842;SDS011;51310;52.198;5.422;2023-06-22T13:46:54;14.23;;;9.65;;
64842;SDS011;51310;52.198;5.422;2023-06-22T13:49:20;12.50;;;10.65;;
64842;SDS011;51310;52.198;5.422;2023-06-22T13:51:47;13.63;;;10.63;;
64842;SDS011;51310;52.198;5.422;2023-06-22T13:54:13;14.90;;;12.10;;
64842;SDS011;51310;52.198;5.422;2023-06-22T13:56:40;18.80;;;11.02;;
64842;SDS011;51310;52.198;5.422;2023-06-22T13:59:06;18.77;;;11.65;;
64842;SDS011;51310;52.198;5.422;2023-06-22T14:01:34;17.33;;;11.40;;
64842;SDS011;51310;52.198;5.422;2023-06-22T14:04:01;19.27;;;11.57;;
64842;SDS011;51310;52.198;5.422;2023-06-22T14:06:27;17.30;;;12.35;;
64842;SDS011;51310;52.198;5.422;2023-06-22T14:08:53;16.50;;;12.77;;
64842;SDS011;51310;52.198;5.422;2023-06-22T14:11:19;15.35;;;11.90;;
64842;SDS011;51310;52.198;5.422;2023-06-22T14:13:45;16.08;;;12.00;;
64842;SDS011;51310;52.198;5.422;2023-06-22T14:16:11;16.85;;;13.45;;
64842;SDS011;51310;52.198;5.422;2023-06-22T14:18:37;17.75;;;12.90;;
64842;SDS011;51310;52.198;5.422;2023-06-22T14:21:03;19.80;;;13.57;;
64842;SDS011;51310;52.198;5.422;2023-06-22T14:23:29;19.77;;;13.10;;
64842;SDS011;51310;52.198;5.422;2023-06-22T14:25:55;19.45;;;13.60;;
64842;SDS011;51310;52.198;5.422;2023-06-22T14:28:21;18.02;;;12.73;;
64842;SDS011;51310;52.198;5.422;2023-06-22T14:30:47;18.25;;;13.57;;
64842;SDS011;51310;52.198;5.422;2023-06-22T14:33:13;18.17;;;13.23;;
64842;SDS011;51310;52.198;5.422;2023-06-22T14:35:39;18.83;;;14.18;;
64842;SDS011;51310;52.198;5.422;2023-06-22T14:38:05;19.35;;;14.52;;
64842;SDS011;51310;52.198;5.422;2023-06-22T14:40:31;18.33;;;14.25;;